Portada
METAR-TAF:

METAR-TAF

Aeroports :

Cordova, Alaska, Estats Units d'Amèrica

latitud: 60-29-30N, longitud: 145-28-40W, altitud: 13 m

Observació

L'informe es va fer fa 24 minuts, a les 18:53 UTC
Vent 4 kt del Est
Temperatura 4°C
Humitat 87%
Pressió 1013 hPa
Visibilitat: 11.3 km
Cel cobert a una alçada de 2200 ft
pluja

METAR: PACV 141853Z 08004KT 7SM -RA OVC022 04/02 A2991 RMK AO2 SLP129 P0005 T00390017

Hora: 10:17 (19:17 UTC)

Pronòstic

L'informe es va fer fa 1 hora i 42 minuts, a les 17:35 UTC
Pronòstic vàlid del 14 a les 18 UTC al 15 a les 18 UTC
Vent 10 kt del Est
Visibilitat: 9.7 km
Cel cobert a una alçada de 2000 ft
pluja
A partir de les 15 a les 0900 UTC
Vent 10 kt del Est amb ràfegues de 20 kt
Visibilitat: 10 km
Cel cobert a una alçada de 3500 ft
xàfecs de pluja

TAF: PACV 141735Z 1418/1518 09010KT 6SM -RA OVC020 FM150900 09010G20KT P6SM -SHRA OVC035

Observacions i pronòstics meteorològics de més de 4000 aeroports (METAR i TAF).

Les estacions disponibles són els punts grocs i vermells al mapa.

Posi el ratolí al punt desitjat per veure el nom de l'estació.

Feu clic per veure les observacions i els pronòstics meteorològics.

Per canviar el mapa: feu clic els botons verds amb una creu de color negre per apropar; al botó verd amb un guió per allunyar la imatge; o en les fletxes verdes per a mapes adjacents.


METAR-TAF: